Time;durP1;ratioP1;P1;durP2;ratioP2;P2;SDS_P1;SDS_P2;PMS_P1;PMS_P2;Temp;Humidity;BMP_temperature;BMP_pressure;BME280_temperature;BME280_humidity;BME280_pressure;Samples;Min_cycle;Max_cycle;Signal;HPM_P1;HPM_P2
2024/02/09 00:01:19;;;;;;;2.95;2.65;;;1.50;99.90;;;;;;4928300;29;20201;-77
2024/02/09 00:03:46;;;;;;;3.53;2.88;;;1.50;99.90;;;;;;4954094;28;20271;-78
2024/02/09 00:06:13;;;;;;;2.58;2.47;;;1.50;99.90;;;;;;4951262;28;20208;-81
2024/02/09 00:08:40;;;;;;;4.22;3.83;;;1.50;99.90;;;;;;4962131;28;20477;-80
2024/02/09 00:11:11;;;;;;;1.60;1.50;;;1.50;99.90;;;;;;4944875;28;20200;-79
2024/02/09 00:13:43;;;;;;;4.03;3.80;;;1.30;99.90;;;;;;4949357;28;20209;-80
2024/02/09 00:16:11;;;;;;;1.73;1.63;;;1.50;99.90;;;;;;4963468;28;20216;-79
2024/02/09 00:18:40;;;;;;;4.35;3.95;;;1.50;99.90;;;;;;4951769;28;20220;-79
2024/02/09 00:21:10;;;;;;;9.20;6.10;;;1.50;99.90;;;;;;4954206;28;20279;-81
2024/02/09 00:23:38;;;;;;;3.13;2.92;;;1.50;99.90;;;;;;4953092;28;20244;-79
2024/02/09 00:26:06;;;;;;;8.82;4.43;;;1.50;99.90;;;;;;4954692;28;20212;-80
2024/02/09 00:28:34;;;;;;;3.15;2.95;;;1.50;99.90;;;;;;4954097;28;20579;-79
2024/02/09 00:31:01;;;;;;;8.85;5.05;;;1.50;99.90;;;;;;4961171;28;20215;-81
2024/02/09 00:33:29;;;;;;;2.15;2.05;;;1.50;99.90;;;;;;4959653;28;20692;-80
2024/02/09 00:35:57;;;;;;;1.67;1.58;;;1.60;99.90;;;;;;4948629;29;20219;-81
2024/02/09 00:38:24;;;;;;;10.38;3.15;;;1.50;99.90;;;;;;4961207;28;20212;-78
2024/02/09 00:40:51;;;;;;;2.15;2.05;;;1.50;99.90;;;;;;4942689;28;20560;-78
2024/02/09 00:43:22;;;;;;;1.55;1.45;;;1.60;99.90;;;;;;4946444;28;20744;-78
2024/02/09 00:45:51;;;;;;;5.00;2.90;;;1.60;99.90;;;;;;4948007;28;20231;-79
2024/02/09 00:48:18;;;;;;;3.20;2.97;;;1.50;99.90;;;;;;4959616;29;20259;-80
2024/02/09 00:50:46;;;;;;;3.50;3.20;;;1.60;99.90;;;;;;4945857;28;20199;-78
2024/02/09 00:53:13;;;;;;;2.70;2.50;;;1.50;99.90;;;;;;4947659;28;20559;-78
2024/02/09 00:55:40;;;;;;;1.38;1.38;;;1.50;99.90;;;;;;4951457;28;20487;-79
2024/02/09 00:58:07;;;;;;;5.65;5.20;;;1.60;99.90;;;;;;4948736;28;20284;-81
2024/02/09 01:00:35;;;;;;;2.05;1.98;;;1.50;99.90;;;;;;4951932;28;20265;-80
2024/02/09 01:03:03;;;;;;;1.77;1.67;;;1.60;99.90;;;;;;4952100;28;20206;-80
2024/02/09 01:05:32;;;;;;;5.15;4.80;;;1.60;99.90;;;;;;4960622;28;20199;-79
2024/02/09 01:08:01;;;;;;;3.28;2.17;;;1.60;99.90;;;;;;4961495;28;20324;-79
2024/02/09 01:10:31;;;;;;;1.10;1.10;;;1.60;99.90;;;;;;4942805;28;20219;-81
2024/02/09 02:46:47;;;;;;;2.35;2.25;;;1.70;99.90;;;;;;4949061;28;20248;-79
2024/02/09 03:05:49;;;;;;;4.63;3.30;;;1.60;99.90;;;;;;4960679;28;20271;-78
2024/02/09 03:08:16;;;;;;;3.05;2.90;;;1.70;99.90;;;;;;4948346;28;20279;-80
2024/02/09 03:10:46;;;;;;;2.03;1.92;;;1.70;99.90;;;;;;4936035;29;20223;-79
2024/02/09 03:13:13;;;;;;;0.80;0.80;;;1.70;99.90;;;;;;4940193;29;20207;-79
2024/02/09 03:15:40;;;;;;;0.77;0.77;;;1.80;99.90;;;;;;4955190;28;20218;-81
2024/02/09 03:18:07;;;;;;;2.35;2.25;;;1.80;99.90;;;;;;4944451;28;20282;-80
2024/02/09 03:20:34;;;;;;;1.92;1.83;;;1.80;99.90;;;;;;4956239;28;20310;-80
2024/02/09 03:23:01;;;;;;;2.63;2.42;;;1.70;99.90;;;;;;4962392;28;20266;-80
2024/02/09 03:25:29;;;;;;;5.35;2.25;;;1.70;99.90;;;;;;4948329;28;20218;-79
2024/02/09 03:27:56;;;;;;;2.47;2.38;;;1.70;99.90;;;;;;4946018;28;20417;-80
2024/02/09 03:30:26;;;;;;;0.77;0.77;;;1.70;99.90;;;;;;4956407;28;20201;-79
2024/02/09 03:32:54;;;;;;;1.95;1.67;;;1.80;99.90;;;;;;4964330;28;20274;-81
2024/02/09 03:35:23;;;;;;;3.17;2.88;;;1.80;99.90;;;;;;4958059;28;20204;-81
2024/02/09 03:37:50;;;;;;;1.45;1.35;;;1.80;99.90;;;;;;4953151;28;20271;-80
2024/02/09 03:40:17;;;;;;;5.00;4.25;;;1.90;99.90;;;;;;4956507;28;20212;-81
2024/02/09 03:42:44;;;;;;;2.15;1.90;;;1.80;99.90;;;;;;4951490;28;20216;-79
2024/02/09 03:45:11;;;;;;;1.00;1.00;;;1.80;99.90;;;;;;4944629;29;20255;-80
2024/02/09 03:47:39;;;;;;;0.70;0.70;;;1.80;99.90;;;;;;4951373;28;20216;-82
2024/02/09 03:50:07;;;;;;;3.13;2.88;;;1.90;99.90;;;;;;4929331;29;20283;-78
2024/02/09 03:52:34;;;;;;;0.95;0.95;;;1.80;99.90;;;;;;4941892;29;20254;-81
2024/02/09 03:55:01;;;;;;;3.38;3.17;;;1.80;99.90;;;;;;4946683;28;20212;-79
2024/02/09 03:57:29;;;;;;;5.25;3.63;;;1.90;99.90;;;;;;4952288;28;20218;-82
2024/02/09 03:59:58;;;;;;;1.50;1.45;;;1.80;99.90;;;;;;4953274;28;20306;-81
2024/02/09 04:02:25;;;;;;;5.28;4.78;;;1.80;99.90;;;;;;4932051;29;20243;-79
2024/02/09 04:04:52;;;;;;;2.20;1.55;;;1.80;99.90;;;;;;4942711;28;20291;-81
2024/02/09 04:07:21;;;;;;;2.25;2.03;;;1.90;99.90;;;;;;4954753;29;20420;-79
2024/02/09 04:09:49;;;;;;;4.20;3.97;;;1.80;99.90;;;;;;4957107;28;20240;-79
2024/02/09 04:12:36;;;;;;;2.40;2.20;;;1.90;99.90;;;;;;4993901;28;20200;-81
2024/02/09 04:15:03;;;;;;;3.17;2.97;;;1.90;99.90;;;;;;4972992;28;20204;-81
2024/02/09 04:17:30;;;;;;;3.22;2.75;;;1.90;99.90;;;;;;4979846;28;20212;-82
2024/02/09 04:19:57;;;;;;;1.58;1.48;;;1.90;99.90;;;;;;4955773;28;20211;-78
2024/02/09 04:22:27;;;;;;;2.53;2.42;;;2.00;99.90;;;;;;4974316;28;20210;-79
2024/02/09 04:24:54;;;;;;;1.80;1.73;;;1.90;99.90;;;;;;4948762;28;20240;-80
2024/02/09 04:27:23;;;;;;;2.53;1.92;;;1.90;99.90;;;;;;4977964;28;20207;-79
2024/02/09 04:29:49;;;;;;;0.70;0.70;;;2.00;99.90;;;;;;4943576;28;20334;-80
2024/02/09 04:32:16;;;;;;;3.15;2.95;;;2.10;99.90;;;;;;4956861;28;20217;-80
2024/02/09 04:34:43;;;;;;;1.92;1.35;;;2.00;99.90;;;;;;4953458;28;20555;-79
2024/02/09 04:37:14;;;;;;;3.70;3.28;;;1.90;99.90;;;;;;4959525;28;20243;-81
2024/02/09 04:39:41;;;;;;;15.35;3.80;;;2.00;99.90;;;;;;4961754;28;20249;-80
2024/02/09 04:42:10;;;;;;;2.15;2.00;;;2.00;99.90;;;;;;4959655;28;20208;-77
2024/02/09 04:44:38;;;;;;;4.60;4.25;;;2.00;99.90;;;;;;4945984;28;20217;-77
2024/02/09 04:47:05;;;;;;;2.78;2.58;;;2.00;99.90;;;;;;4951495;28;20274;-78
2024/02/09 04:49:32;;;;;;;1.42;1.33;;;2.00;99.90;;;;;;4953680;28;20259;-79
2024/02/09 04:52:00;;;;;;;5.85;3.15;;;2.00;99.90;;;;;;4956808;28;20210;-79
2024/02/09 04:54:27;;;;;;;1.52;1.42;;;2.00;99.90;;;;;;4953852;28;20246;-79
2024/02/09 04:56:54;;;;;;;5.43;5.05;;;2.00;99.90;;;;;;4950530;28;20259;-82
2024/02/09 04:59:21;;;;;;;1.98;1.88;;;2.00;99.90;;;;;;4947603;28;20224;-78
2024/02/09 05:01:51;;;;;;;2.42;1.60;;;2.00;99.90;;;;;;4946292;28;20210;-78
2024/02/09 05:04:18;;;;;;;1.85;1.75;;;2.00;99.90;;;;;;4950934;28;20474;-77
2024/02/09 05:06:45;;;;;;;3.25;2.95;;;2.00;99.90;;;;;;4957344;28;20240;-78
2024/02/09 05:09:13;;;;;;;2.47;2.38;;;2.00;99.90;;;;;;4952896;28;20263;-80
2024/02/09 05:11:43;;;;;;;3.45;3.10;;;2.00;99.90;;;;;;4959695;28;20207;-82
2024/02/09 05:14:13;;;;;;;5.60;4.60;;;2.00;99.90;;;;;;4963287;29;20263;-81
2024/02/09 05:16:41;;;;;;;1.70;1.60;;;2.10;99.90;;;;;;4949396;28;20607;-79
2024/02/09 05:19:11;;;;;;;1.80;1.73;;;2.10;99.90;;;;;;4952355;28;20311;-79
2024/02/09 05:21:39;;;;;;;2.97;2.78;;;2.10;99.90;;;;;;4937367;29;20218;-78
2024/02/09 05:24:06;;;;;;;9.95;3.00;;;2.00;99.90;;;;;;4952860;28;20244;-81
2024/02/09 05:26:33;;;;;;;3.58;3.33;;;2.10;99.90;;;;;;4935392;29;20263;-78
2024/02/09 05:29:02;;;;;;;2.38;2.17;;;2.10;99.90;;;;;;4953726;28;20270;-80
2024/02/09 05:31:30;;;;;;;2.88;2.78;;;2.10;99.90;;;;;;4958239;28;20211;-79
2024/02/09 05:33:57;;;;;;;2.47;2.38;;;2.10;99.90;;;;;;4934597;29;20244;-81
2024/02/09 05:36:28;;;;;;;2.28;2.17;;;2.10;99.90;;;;;;4949460;28;20211;-78
2024/02/09 05:38:58;;;;;;;2.83;2.58;;;2.10;99.90;;;;;;4953747;29;20680;-77
2024/02/09 05:41:26;;;;;;;5.00;4.30;;;2.10;99.90;;;;;;4927357;29;20219;-79
2024/02/09 05:43:57;;;;;;;1.60;1.50;;;2.30;99.90;;;;;;4959583;28;20212;-80
2024/02/09 05:46:27;;;;;;;2.95;2.67;;;2.10;99.90;;;;;;4956214;28;20274;-80
2024/02/09 05:48:55;;;;;;;2.55;2.35;;;2.20;99.90;;;;;;4970967;28;20235;-77
2024/02/09 05:51:23;;;;;;;1.98;1.88;;;2.10;99.90;;;;;;4953540;28;20211;-78
2024/02/09 05:53:50;;;;;;;3.63;3.42;;;2.10;99.90;;;;;;4952780;28;20243;-79
2024/02/09 05:56:21;;;;;;;3.90;3.60;;;2.20;99.90;;;;;;4952131;28;20451;-79
2024/02/09 05:58:52;;;;;;;2.78;2.67;;;2.20;99.90;;;;;;4952837;28;20687;-80
2024/02/09 06:01:22;;;;;;;3.63;3.33;;;2.20;99.90;;;;;;4941735;29;20267;-81
2024/02/09 06:03:52;;;;;;;2.60;2.50;;;2.10;99.90;;;;;;4941842;29;20215;-79
2024/02/09 06:06:20;;;;;;;2.53;2.42;;;2.10;99.90;;;;;;4955367;28;20207;-79
2024/02/09 06:08:49;;;;;;;1.67;1.58;;;2.20;99.90;;;;;;4953930;28;20286;-80
2024/02/09 06:11:17;;;;;;;2.47;1.58;;;2.20;99.90;;;;;;4964100;28;20199;-79
2024/02/09 06:13:45;;;;;;;4.88;4.63;;;2.20;99.90;;;;;;4961099;28;20226;-81
2024/02/09 06:16:14;;;;;;;5.03;4.68;;;2.20;99.90;;;;;;4956310;28;20710;-78
2024/02/09 06:18:45;;;;;;;3.33;2.63;;;2.30;99.90;;;;;;4956413;28;20505;-80
2024/02/09 06:21:14;;;;;;;3.13;2.92;;;2.30;99.90;;;;;;4957507;28;20199;-77
2024/02/09 06:23:43;;;;;;;2.13;2.03;;;2.20;99.90;;;;;;4951557;28;20523;-78
2024/02/09 06:26:11;;;;;;;4.05;3.78;;;2.20;99.90;;;;;;4959710;28;20219;-78
2024/02/09 06:28:38;;;;;;;5.03;4.43;;;2.20;99.90;;;;;;4957478;28;20239;-79
2024/02/09 06:31:05;;;;;;;1.90;1.77;;;2.20;99.90;;;;;;4964165;29;20215;-80
2024/02/09 06:33:33;;;;;;;1.52;1.52;;;2.10;99.90;;;;;;4958213;28;20222;-78
2024/02/09 06:36:00;;;;;;;2.92;2.75;;;2.20;99.90;;;;;;4956516;28;20245;-79
2024/02/09 06:38:27;;;;;;;4.07;3.88;;;2.30;99.90;;;;;;4951705;28;20267;-79
2024/02/09 06:40:54;;;;;;;6.10;4.30;;;2.30;99.90;;;;;;4954125;28;20425;-78
2024/02/09 06:43:22;;;;;;;1.25;0.95;;;2.30;99.90;;;;;;4952106;28;20493;-78
2024/02/09 06:45:50;;;;;;;2.10;1.98;;;2.30;99.90;;;;;;4970571;28;20211;-78
2024/02/09 06:48:17;;;;;;;6.60;5.63;;;2.30;99.90;;;;;;4952372;28;20212;-81
2024/02/09 06:50:44;;;;;;;3.15;2.95;;;2.30;99.90;;;;;;4963863;28;20211;-79
2024/02/09 06:53:11;;;;;;;3.95;3.60;;;2.30;99.90;;;;;;4955910;28;20204;-78
2024/02/09 06:55:38;;;;;;;1.98;1.85;;;2.40;99.90;;;;;;4973269;28;20256;-79
2024/02/09 06:58:06;;;;;;;2.40;1.98;;;2.40;99.90;;;;;;4957235;28;20286;-78
2024/02/09 07:00:35;;;;;;;4.35;3.90;;;2.40;99.90;;;;;;4964708;28;20216;-80
2024/02/09 07:03:03;;;;;;;5.65;5.38;;;2.40;99.90;;;;;;4956386;28;20222;-81
2024/02/09 07:05:30;;;;;;;3.28;2.95;;;2.30;99.90;;;;;;4965912;28;20191;-81
2024/02/09 07:07:59;;;;;;;8.55;4.75;;;2.30;99.90;;;;;;4967759;28;20208;-78
2024/02/09 07:10:29;;;;;;;3.45;3.15;;;2.40;99.90;;;;;;4974719;28;20226;-78
2024/02/09 07:12:56;;;;;;;0.93;0.93;;;2.50;99.90;;;;;;4956521;28;20208;-80
2024/02/09 07:15:23;;;;;;;4.30;4.10;;;2.50;99.90;;;;;;4953281;28;20536;-79
2024/02/09 07:17:54;;;;;;;4.72;4.43;;;2.60;99.90;;;;;;4952108;28;20282;-81
2024/02/09 07:20:22;;;;;;;2.72;1.83;;;2.60;99.90;;;;;;4944015;28;20532;-77
2024/02/09 07:22:51;;;;;;;5.07;4.68;;;2.50;99.90;;;;;;4931360;29;20207;-81
2024/02/09 07:25:18;;;;;;;1.73;1.63;;;2.50;99.90;;;;;;4955209;28;20207;-78
2024/02/09 07:27:46;;;;;;;3.55;3.35;;;2.50;99.90;;;;;;4939669;29;20251;-79
2024/02/09 07:30:15;;;;;;;7.85;5.22;;;2.60;99.90;;;;;;4963695;28;20431;-80
2024/02/09 07:32:42;;;;;;;2.40;2.30;;;2.60;99.90;;;;;;4950555;28;20213;-81
2024/02/09 07:35:10;;;;;;;7.38;4.22;;;2.60;99.90;;;;;;4953711;28;20406;-80
2024/02/09 07:37:37;;;;;;;3.25;2.88;;;2.70;99.90;;;;;;4954743;29;20203;-78
2024/02/09 07:40:08;;;;;;;2.45;2.35;;;2.80;99.90;;;;;;4965583;28;20407;-79
2024/02/09 07:42:36;;;;;;;2.35;2.25;;;2.70;99.90;;;;;;4964757;28;20301;-81
2024/02/09 07:45:04;;;;;;;4.82;4.53;;;2.80;99.90;;;;;;4960915;28;20283;-81
2024/02/09 07:47:31;;;;;;;2.28;2.17;;;2.80;99.90;;;;;;4956557;28;20211;-80
2024/02/09 07:50:00;;;;;;;3.00;2.90;;;2.80;99.90;;;;;;4955490;28;20275;-78
2024/02/09 07:52:29;;;;;;;1.83;1.77;;;2.80;99.90;;;;;;4959289;28;20222;-78
2024/02/09 07:54:56;;;;;;;2.17;1.90;;;2.80;99.90;;;;;;4947494;29;20632;-77
2024/02/09 07:57:25;;;;;;;1.83;1.75;;;2.90;99.90;;;;;;4951217;29;20314;-78
2024/02/09 07:59:52;;;;;;;1.80;1.65;;;3.00;99.90;;;;;;4957644;29;20304;-78
2024/02/09 08:02:19;;;;;;;3.90;1.48;;;3.10;99.90;;;;;;4961957;28;20254;-80
2024/02/09 08:04:46;;;;;;;4.05;3.85;;;3.00;99.90;;;;;;4957679;28;20236;-77
2024/02/09 08:07:15;;;;;;;1.58;1.45;;;3.00;99.90;;;;;;4949044;28;20212;-78
2024/02/09 08:09:42;;;;;;;3.95;3.28;;;3.00;99.90;;;;;;4955683;28;20240;-79
2024/02/09 08:12:09;;;;;;;3.72;3.53;;;3.00;99.90;;;;;;4950199;28;20243;-80
2024/02/09 08:14:39;;;;;;;4.80;4.35;;;3.00;99.90;;;;;;4951916;29;20395;-79
2024/02/09 08:17:09;;;;;;;3.22;2.80;;;2.90;99.90;;;;;;4959102;28;20212;-79
2024/02/09 08:19:36;;;;;;;2.72;2.50;;;3.20;99.90;;;;;;4958832;28;20299;-79
2024/02/09 08:22:03;;;;;;;5.07;4.78;;;3.20;99.90;;;;;;4953480;28;20227;-81
2024/02/09 08:24:30;;;;;;;5.80;5.40;;;3.20;99.90;;;;;;4954885;28;20419;-80
2024/02/09 08:26:57;;;;;;;2.78;2.67;;;3.40;99.90;;;;;;4950023;28;20248;-78
2024/02/09 08:29:24;;;;;;;3.10;2.95;;;3.40;99.90;;;;;;4931810;28;20231;-81
2024/02/09 08:31:51;;;;;;;2.47;2.38;;;3.40;99.90;;;;;;4960335;29;20539;-79
2024/02/09 08:34:19;;;;;;;3.70;3.40;;;3.40;99.90;;;;;;4958566;29;20222;-78
2024/02/09 08:36:46;;;;;;;1.90;1.80;;;3.30;99.90;;;;;;4956305;28;20401;-80
2024/02/09 08:39:13;;;;;;;3.55;3.35;;;3.50;99.90;;;;;;4948756;28;20216;-78
2024/02/09 08:41:40;;;;;;;3.95;3.70;;;3.50;99.90;;;;;;4934403;29;20207;-78
2024/02/09 08:44:08;;;;;;;4.05;3.85;;;3.40;99.90;;;;;;4946135;28;20519;-80
2024/02/09 08:46:35;;;;;;;4.85;4.53;;;3.40;99.90;;;;;;4958906;28;20575;-79
2024/02/09 08:49:02;;;;;;;4.90;4.68;;;3.20;99.90;;;;;;4944293;29;20239;-80
2024/02/09 08:51:30;;;;;;;4.32;4.13;;;3.50;99.90;;;;;;4943357;28;20214;-79
2024/02/09 08:53:58;;;;;;;2.35;2.25;;;3.50;99.90;;;;;;4956672;29;20247;-80
2024/02/09 08:56:25;;;;;;;2.22;2.13;;;3.40;99.90;;;;;;4938297;29;20235;-79
2024/02/09 08:58:53;;;;;;;4.65;4.45;;;3.60;99.90;;;;;;4945272;28;20520;-79
2024/02/09 09:01:20;;;;;;;2.70;2.50;;;3.60;99.90;;;;;;4960918;28;20199;-79
2024/02/09 09:03:47;;;;;;;2.50;2.38;;;3.50;99.90;;;;;;4946177;28;20228;-78
2024/02/09 09:06:14;;;;;;;5.70;5.15;;;3.60;99.90;;;;;;4954291;29;20215;-78
2024/02/09 09:08:42;;;;;;;2.83;2.72;;;3.70;99.90;;;;;;4955238;28;20208;-79
2024/02/09 09:11:10;;;;;;;4.00;3.80;;;4.00;99.90;;;;;;4956555;28;20254;-78
2024/02/09 09:13:36;;;;;;;5.50;5.00;;;4.00;99.90;;;;;;4937481;29;20217;-76
2024/02/09 09:16:04;;;;;;;5.63;2.97;;;4.00;99.90;;;;;;4946801;28;20214;-80
2024/02/09 09:18:31;;;;;;;1.75;1.65;;;4.10;99.90;;;;;;4959814;28;20207;-78
2024/02/09 09:20:58;;;;;;;2.00;1.90;;;4.20;99.90;;;;;;4949127;28;20223;-79
2024/02/09 09:23:25;;;;;;;4.32;4.10;;;4.00;99.90;;;;;;4935305;28;20507;-78
2024/02/09 09:25:53;;;;;;;3.03;1.88;;;4.20;99.90;;;;;;4948425;28;20208;-77
2024/02/09 09:28:21;;;;;;;1.42;1.25;;;4.30;99.90;;;;;;4961243;28;20210;-78
2024/02/09 09:30:48;;;;;;;2.95;2.85;;;4.30;99.90;;;;;;4956353;29;20275;-78
2024/02/09 09:33:15;;;;;;;1.83;1.73;;;4.30;99.90;;;;;;4954870;28;20242;-80
2024/02/09 09:35:42;;;;;;;3.60;3.38;;;4.40;99.90;;;;;;4953334;28;20418;-78
2024/02/09 09:38:11;;;;;;;1.83;1.73;;;4.40;99.90;;;;;;4932876;29;20208;-77
2024/02/09 09:40:40;;;;;;;6.65;4.25;;;4.50;99.90;;;;;;4952785;28;20253;-80
2024/02/09 09:43:08;;;;;;;2.20;2.00;;;4.70;99.90;;;;;;4960344;28;20238;-81
2024/02/09 09:45:35;;;;;;;3.60;3.10;;;4.70;99.90;;;;;;4949979;28;20272;-79
2024/02/09 09:48:06;;;;;;;2.60;2.40;;;4.70;99.90;;;;;;4932889;29;20215;-77
2024/02/09 09:50:35;;;;;;;2.10;2.03;;;5.00;99.90;;;;;;4959861;29;21932;-79
2024/02/09 09:53:08;;;;;;;5.65;5.22;;;5.10;99.90;;;;;;4949971;28;20199;-77
2024/02/09 09:55:37;;;;;;;2.17;2.10;;;5.10;99.90;;;;;;4949838;28;20217;-80
2024/02/09 09:58:04;;;;;;;2.83;2.70;;;5.10;99.90;;;;;;4963223;28;20210;-81
2024/02/09 10:00:32;;;;;;;4.90;4.05;;;5.40;99.90;;;;;;4972477;29;20233;-78
2024/02/09 10:03:01;;;;;;;11.43;3.78;;;5.50;99.90;;;;;;4968353;28;20266;-79
2024/02/09 10:05:30;;;;;;;4.90;4.50;;;5.50;99.90;;;;;;4940732;29;20298;-80
2024/02/09 10:07:57;;;;;;;5.82;4.60;;;5.50;99.90;;;;;;4957574;29;20475;-81
2024/02/09 10:10:27;;;;;;;5.00;4.72;;;5.50;99.90;;;;;;4952124;28;20244;-79
2024/02/09 10:13:08;;;;;;;3.08;2.78;;;5.50;99.90;;;;;;4960531;28;20206;-78
2024/02/09 10:15:41;;;;;;;3.45;3.25;;;5.60;99.90;;;;;;4945052;28;20216;-79
2024/02/09 10:18:11;;;;;;;4.15;3.75;;;5.80;99.90;;;;;;4961062;28;20251;-79
2024/02/09 10:20:40;;;;;;;2.28;1.50;;;5.60;99.90;;;;;;4943630;29;20540;-80
2024/02/09 10:23:07;;;;;;;7.72;6.97;;;5.60;99.90;;;;;;4956857;28;20267;-79
2024/02/09 10:25:35;;;;;;;3.90;3.42;;;5.70;99.90;;;;;;4944605;28;20212;-79
2024/02/09 10:28:03;;;;;;;6.93;5.30;;;5.60;99.90;;;;;;4958446;28;20497;-81
2024/02/09 10:30:30;;;;;;;6.28;4.38;;;5.60;99.90;;;;;;4952145;28;20298;-82
2024/02/09 10:32:57;;;;;;;6.28;2.60;;;5.80;99.90;;;;;;4946812;29;20450;-79
2024/02/09 10:35:25;;;;;;;4.55;3.08;;;5.60;99.90;;;;;;4952827;28;20210;-79
2024/02/09 10:37:52;;;;;;;2.13;2.05;;;6.00;99.90;;;;;;4939622;29;20213;-79
2024/02/09 10:40:20;;;;;;;2.60;2.50;;;6.10;99.90;;;;;;4958858;28;20265;-79
2024/02/09 10:42:50;;;;;;;4.05;3.85;;;6.00;99.90;;;;;;4955669;28;20214;-79
2024/02/09 10:45:17;;;;;;;3.95;3.75;;;6.00;99.90;;;;;;4957624;29;20209;-80
2024/02/09 10:47:53;;;;;;;7.03;6.53;;;6.10;99.90;;;;;;4961680;28;20211;-79
2024/02/09 10:50:22;;;;;;;3.05;2.85;;;6.10;99.90;;;;;;4962746;28;20425;-81
2024/02/09 10:52:51;;;;;;;5.00;2.90;;;6.10;99.90;;;;;;4964097;29;20281;-80
2024/02/09 10:55:23;;;;;;;6.20;4.63;;;6.20;99.90;;;;;;4955970;28;20210;-80
2024/02/09 10:57:51;;;;;;;2.95;2.78;;;6.30;99.90;;;;;;4957683;29;20219;-79
2024/02/09 11:00:18;;;;;;;4.05;3.80;;;6.40;99.90;;;;;;4959760;28;20287;-78
2024/02/09 11:02:45;;;;;;;3.95;3.70;;;6.60;99.90;;;;;;4952447;28;20229;-78
2024/02/09 11:05:14;;;;;;;4.05;3.65;;;6.50;99.90;;;;;;4928941;29;20279;-78
2024/02/09 11:07:49;;;;;;;2.10;2.00;;;6.60;99.90;;;;;;4950499;28;20279;-79
2024/02/09 11:10:17;;;;;;;3.85;3.60;;;6.70;99.90;;;;;;4952454;29;20233;-79
2024/02/09 11:12:59;;;;;;;6.82;5.97;;;6.90;99.90;;;;;;4958535;28;20241;-81
2024/02/09 11:15:32;;;;;;;1.83;1.73;;;6.80;99.90;;;;;;4952582;28;20211;-82
2024/02/09 11:18:00;;;;;;;3.20;3.10;;;6.90;99.90;;;;;;4957140;28;20382;-78
2024/02/09 11:20:32;;;;;;;2.75;2.65;;;6.90;99.90;;;;;;4955043;29;20223;-78
2024/02/09 11:23:00;;;;;;;3.90;3.70;;;6.90;99.90;;;;;;4953006;28;20521;-80
2024/02/09 11:25:28;;;;;;;6.10;5.68;;;6.90;99.90;;;;;;4947331;28;20528;-79
2024/02/09 11:27:56;;;;;;;3.55;3.38;;;7.10;99.90;;;;;;4951423;28;20200;-80
2024/02/09 11:30:23;;;;;;;1.95;1.85;;;7.20;99.90;;;;;;4946175;29;20232;-80
2024/02/09 11:32:50;;;;;;;5.15;2.55;;;7.30;99.90;;;;;;4950308;28;20207;-81
2024/02/09 11:35:18;;;;;;;3.22;3.03;;;7.40;99.90;;;;;;4948879;28;20759;-79
2024/02/09 11:37:46;;;;;;;2.45;2.35;;;7.60;99.90;;;;;;4960456;28;20223;-79
2024/02/09 11:40:15;;;;;;;4.88;4.55;;;7.50;99.90;;;;;;4953919;29;20199;-81
2024/02/09 11:42:43;;;;;;;2.80;2.70;;;7.60;99.90;;;;;;4965071;28;20210;-78
2024/02/09 11:45:11;;;;;;;3.40;3.22;;;7.90;99.90;;;;;;4948874;29;20203;-78
2024/02/09 11:47:39;;;;;;;2.78;2.15;;;7.90;99.90;;;;;;4940894;29;20218;-80
2024/02/09 11:50:22;;;;;;;4.00;3.80;;;8.00;99.90;;;;;;4958391;28;20569;-81
2024/02/09 11:52:53;;;;;;;7.72;4.97;;;8.10;99.90;;;;;;4955191;28;20208;-79
2024/02/09 11:55:39;;;;;;;4.35;3.88;;;8.10;99.90;;;;;;4953669;28;20215;-80
2024/02/09 11:58:11;;;;;;;3.17;3.03;;;8.10;99.90;;;;;;4949608;29;20203;-78
2024/02/09 12:00:40;;;;;;;6.22;4.47;;;8.30;99.90;;;;;;4960810;28;20215;-80
2024/02/09 12:03:09;;;;;;;3.42;3.20;;;8.40;99.90;;;;;;4957818;28;20207;-78
2024/02/09 12:05:43;;;;;;;3.53;3.30;;;8.60;99.90;;;;;;4954141;28;20227;-77
2024/02/09 12:08:10;;;;;;;5.72;5.43;;;8.50;99.90;;;;;;4955676;28;20200;-80
2024/02/09 12:10:38;;;;;;;3.50;3.33;;;8.60;99.90;;;;;;4957448;28;20262;-80
2024/02/09 12:13:05;;;;;;;2.50;2.40;;;8.50;99.90;;;;;;4952326;28;20679;-78
2024/02/09 12:15:33;;;;;;;5.05;4.82;;;8.40;99.90;;;;;;4960937;28;20262;-81
2024/02/09 12:18:01;;;;;;;8.60;8.05;;;8.50;99.90;;;;;;4958718;29;20211;-80
2024/02/09 12:20:30;;;;;;;2.15;2.05;;;8.70;99.90;;;;;;4935676;28;20223;-80
2024/02/09 12:23:00;;;;;;;3.47;3.28;;;8.70;99.90;;;;;;4949269;28;20206;-77
2024/02/09 12:25:27;;;;;;;5.68;5.13;;;8.70;99.90;;;;;;4972272;28;20196;-80
2024/02/09 12:27:59;;;;;;;9.57;5.18;;;8.80;99.90;;;;;;4959754;28;20538;-78
2024/02/09 12:30:27;;;;;;;1.88;1.50;;;8.90;99.90;;;;;;4955408;29;20239;-79
2024/02/09 12:32:59;;;;;;;2.97;2.88;;;8.90;99.90;;;;;;4933046;28;20208;-79
2024/02/09 12:35:30;;;;;;;2.30;2.20;;;9.00;99.90;;;;;;4944544;28;20279;-80
2024/02/09 12:37:57;;;;;;;2.92;2.83;;;9.00;99.90;;;;;;4949322;28;20408;-78
2024/02/09 12:40:25;;;;;;;3.25;3.05;;;9.20;99.90;;;;;;4950875;28;20305;-80
2024/02/09 12:42:55;;;;;;;3.60;3.38;;;9.20;99.90;;;;;;4934993;28;20443;-79
2024/02/09 12:45:26;;;;;;;3.30;3.10;;;9.40;99.90;;;;;;4955528;28;20275;-79
2024/02/09 12:47:53;;;;;;;2.65;2.45;;;9.30;99.90;;;;;;4954393;28;20435;-81
2024/02/09 12:50:20;;;;;;;2.35;2.25;;;9.50;99.90;;;;;;4949971;28;20593;-79
2024/02/09 12:52:49;;;;;;;2.58;2.47;;;9.50;99.90;;;;;;4951794;28;20527;-79
2024/02/09 12:55:19;;;;;;;4.35;4.15;;;9.50;99.90;;;;;;4943560;28;20231;-79
2024/02/09 12:57:48;;;;;;;1.58;1.48;;;9.30;99.90;;;;;;4956357;28;20251;-81
2024/02/09 13:00:15;;;;;;;3.15;2.95;;;9.60;99.90;;;;;;4957105;29;20211;-80
2024/02/09 13:02:42;;;;;;;5.00;4.65;;;9.50;99.90;;;;;;4944135;28;20208;-78
2024/02/09 13:05:10;;;;;;;3.60;3.42;;;9.50;99.90;;;;;;4962628;28;20207;-79
2024/02/09 13:07:37;;;;;;;3.08;2.95;;;9.50;99.90;;;;;;4936749;29;20230;-80
2024/02/09 13:10:07;;;;;;;3.00;2.15;;;9.70;99.90;;;;;;4952006;29;20440;-81
2024/02/09 13:12:37;;;;;;;4.35;2.92;;;9.70;99.90;;;;;;4930248;28;20214;-79
2024/02/09 13:15:10;;;;;;;0.77;0.77;;;9.70;99.90;;;;;;4948553;28;20211;-80
2024/02/09 13:17:39;;;;;;;2.20;2.10;;;9.90;99.90;;;;;;4953696;28;20212;-81
2024/02/09 13:20:08;;;;;;;1.98;1.88;;;9.80;99.90;;;;;;4949070;29;20279;-79
2024/02/09 13:22:37;;;;;;;4.72;4.32;;;9.90;99.90;;;;;;4950615;29;20426;-80
2024/02/09 13:25:05;;;;;;;3.40;3.10;;;10.00;99.90;;;;;;4951007;29;20212;-78
2024/02/09 13:27:32;;;;;;;1.88;1.77;;;10.00;99.90;;;;;;4949237;28;20247;-79
2024/02/09 13:29:59;;;;;;;1.35;1.30;;;10.00;99.90;;;;;;4957697;28;20518;-78
2024/02/09 13:32:27;;;;;;;2.63;2.53;;;10.00;99.90;;;;;;4939798;29;20207;-79
2024/02/09 13:34:54;;;;;;;3.53;3.33;;;10.00;99.90;;;;;;4959751;28;20269;-78
2024/02/09 13:37:22;;;;;;;1.40;1.40;;;10.00;99.90;;;;;;4949997;28;20231;-80
2024/02/09 13:39:52;;;;;;;2.33;2.13;;;10.00;99.90;;;;;;4962062;28;20203;-81
2024/02/09 13:42:21;;;;;;;2.75;2.50;;;10.00;99.90;;;;;;4959021;28;20391;-80
2024/02/09 13:44:48;;;;;;;2.15;2.05;;;10.10;99.90;;;;;;4969421;28;20203;-82
2024/02/09 13:47:15;;;;;;;1.80;1.80;;;10.10;99.90;;;;;;4960206;29;20210;-81
2024/02/09 13:49:44;;;;;;;4.75;2.35;;;10.30;99.90;;;;;;4954062;29;20219;-79
2024/02/09 13:52:13;;;;;;;2.17;1.98;;;10.10;99.90;;;;;;4952095;28;20235;-79
2024/02/09 13:54:40;;;;;;;2.15;1.95;;;10.00;99.90;;;;;;4954026;28;20356;-78
2024/02/09 13:57:07;;;;;;;2.75;2.55;;;10.00;99.90;;;;;;4952879;29;20205;-79
2024/02/09 13:59:37;;;;;;;2.40;2.20;;;10.10;99.90;;;;;;4948911;29;20212;-81
2024/02/09 14:02:05;;;;;;;0.90;0.90;;;10.10;99.90;;;;;;4954812;28;20514;-79
2024/02/09 14:04:34;;;;;;;0.68;0.68;;;10.00;99.90;;;;;;4936465;29;20225;-80
2024/02/09 14:07:04;;;;;;;3.13;2.97;;;10.00;99.90;;;;;;4957001;29;20215;-80
2024/02/09 14:09:35;;;;;;;3.00;2.85;;;10.10;99.90;;;;;;4930743;29;20215;-80
2024/02/09 14:12:03;;;;;;;1.55;1.50;;;10.10;99.90;;;;;;4947052;29;20226;-80
2024/02/09 14:14:29;;;;;;;2.55;2.42;;;10.10;99.90;;;;;;4936957;29;20207;-79
2024/02/09 14:16:56;;;;;;;0.50;0.50;;;10.20;99.90;;;;;;4946042;28;20219;-81
2024/02/09 14:19:23;;;;;;;1.05;1.05;;;10.20;99.90;;;;;;4953767;28;20268;-78
2024/02/09 14:21:51;;;;;;;1.20;1.10;;;10.20;99.90;;;;;;4949793;28;20402;-79
2024/02/09 14:24:18;;;;;;;0.60;0.60;;;10.20;99.90;;;;;;4945509;29;20251;-80
2024/02/09 14:26:50;;;;;;;0.70;0.70;;;10.30;99.90;;;;;;4937916;29;20368;-79
2024/02/09 14:29:17;;;;;;;0.82;0.82;;;10.20;99.90;;;;;;4953495;28;20231;-82
2024/02/09 14:31:44;;;;;;;1.50;1.50;;;10.20;99.90;;;;;;4948308;29;20234;-80
2024/02/09 14:34:11;;;;;;;0.90;0.90;;;10.20;99.90;;;;;;4962266;28;20530;-82
2024/02/09 14:36:39;;;;;;;3.78;2.95;;;10.20;99.90;;;;;;4946877;28;20555;-79
2024/02/09 14:39:07;;;;;;;2.25;2.05;;;10.30;99.90;;;;;;4951771;28;20228;-79
2024/02/09 14:41:39;;;;;;;1.25;1.15;;;10.30;99.90;;;;;;4945181;29;20564;-79
2024/02/09 14:44:07;;;;;;;1.05;1.05;;;10.20;99.90;;;;;;4950502;28;20212;-81
2024/02/09 14:46:42;;;;;;;1.05;1.05;;;10.30;99.90;;;;;;4936869;29;20208;-81
2024/02/09 14:49:10;;;;;;;0.50;0.50;;;10.30;99.90;;;;;;4951434;28;20229;-82
2024/02/09 14:51:38;;;;;;;0.40;0.40;;;10.30;99.90;;;;;;4962425;29;20226;-79